createdAt,value
2023-04-09T00:00:32.206Z,14.60
2023-04-09T00:03:20.683Z,14.60
2023-04-09T00:06:09.187Z,14.60
2023-04-09T00:08:57.787Z,14.60
2023-04-09T00:11:46.309Z,14.60
2023-04-09T00:14:34.710Z,14.70
2023-04-09T00:17:24.731Z,14.70
2023-04-09T00:20:13.630Z,14.70
2023-04-09T00:23:02.107Z,14.80
2023-04-09T00:25:50.692Z,14.80
2023-04-09T00:28:39.284Z,14.80
2023-04-09T00:31:27.840Z,14.80
2023-04-09T00:34:17.597Z,14.80
2023-04-09T00:37:06.372Z,14.80
2023-04-09T00:39:54.811Z,14.80
2023-04-09T00:42:43.351Z,14.80
2023-04-09T00:45:31.974Z,14.80
2023-04-09T00:48:20.509Z,14.80
2023-04-09T00:51:10.987Z,14.80
2023-04-09T00:53:59.790Z,14.80
2023-04-09T00:56:48.760Z,14.80
2023-04-09T00:59:37.176Z,14.70
2023-04-09T01:02:25.763Z,14.60
2023-04-09T01:05:14.855Z,14.60
2023-04-09T01:08:10.613Z,14.70
2023-04-09T01:11:09.062Z,14.70
2023-04-09T01:14:05.215Z,14.60
2023-04-09T01:16:58.547Z,14.60
2023-04-09T01:19:55.444Z,14.60
2023-04-09T01:22:53.251Z,14.60
2023-04-09T01:25:54.593Z,14.60
2023-04-09T01:28:47.003Z,14.60
2023-04-09T01:31:39.211Z,14.50
2023-04-09T01:34:28.536Z,14.50
2023-04-09T01:37:18.261Z,14.50
2023-04-09T01:40:08.179Z,14.50
2023-04-09T01:42:57.669Z,14.40
2023-04-09T01:45:48.262Z,14.40
2023-04-09T01:48:37.412Z,14.40
2023-04-09T01:51:27.359Z,14.40
2023-04-09T01:54:17.095Z,14.40
2023-04-09T01:57:05.806Z,14.30
2023-04-09T01:59:55.550Z,14.30
2023-04-09T02:02:52.890Z,14.20
2023-04-09T02:05:46.394Z,14.20
2023-04-09T02:08:36.520Z,14.30
2023-04-09T02:11:27.851Z,14.20
2023-04-09T02:14:17.311Z,14.10
2023-04-09T02:17:05.872Z,14.10
2023-04-09T02:19:55.660Z,14.10
2023-04-09T02:22:44.085Z,14.00
2023-04-09T02:25:33.169Z,14.10
2023-04-09T02:28:21.674Z,14.10
2023-04-09T02:31:11.337Z,14.00
2023-04-09T02:33:59.872Z,14.00
2023-04-09T02:36:49.740Z,13.90
2023-04-09T02:39:38.175Z,13.80
2023-04-09T02:42:26.560Z,13.80
2023-04-09T02:45:15.157Z,13.90
2023-04-09T02:48:03.545Z,13.90
2023-04-09T02:50:51.934Z,13.90
2023-04-09T02:53:41.796Z,14.00
2023-04-09T02:56:30.241Z,14.00
2023-04-09T02:59:18.736Z,14.00
2023-04-09T03:02:07.238Z,14.00
2023-04-09T03:04:55.743Z,14.00
2023-04-09T03:07:44.208Z,14.00
2023-04-09T03:10:33.982Z,14.00
2023-04-09T03:13:22.319Z,14.00
2023-04-09T03:16:11.121Z,14.10
2023-04-09T03:18:59.588Z,14.10
2023-04-09T03:21:49.268Z,14.10
2023-04-09T03:24:37.713Z,14.10
2023-04-09T03:27:27.559Z,14.10
2023-04-09T03:30:15.981Z,14.10
2023-04-09T03:33:04.575Z,14.10
2023-04-09T03:35:53.391Z,14.10
2023-04-09T03:38:41.859Z,14.10
2023-04-09T03:41:30.337Z,14.10
2023-04-09T03:44:20.135Z,14.10
2023-04-09T03:47:09.010Z,14.10
2023-04-09T03:49:57.578Z,14.00
2023-04-09T03:52:45.980Z,14.10
2023-04-09T03:55:34.472Z,14.00
2023-04-09T03:58:22.912Z,14.00
2023-04-09T04:01:12.704Z,14.00
2023-04-09T04:04:01.376Z,14.00
2023-04-09T04:06:49.874Z,13.90
2023-04-09T04:09:38.333Z,13.90
2023-04-09T04:12:26.685Z,13.90
2023-04-09T04:15:15.496Z,13.90
2023-04-09T04:18:05.402Z,13.90
2023-04-09T04:20:53.842Z,13.80
2023-04-09T04:23:42.723Z,13.80
2023-04-09T04:26:31.204Z,13.80
2023-04-09T04:29:19.602Z,13.80
2023-04-09T04:32:08.068Z,13.80
2023-04-09T04:34:57.891Z,13.70
2023-04-09T04:37:46.366Z,13.60
2023-04-09T04:40:34.748Z,13.60
2023-04-09T04:43:23.146Z,13.60
2023-04-09T04:46:11.626Z,13.60
2023-04-09T04:49:00.048Z,13.50
2023-04-09T04:51:49.777Z,13.50
2023-04-09T04:54:38.245Z,13.40
2023-04-09T04:57:26.781Z,13.40
2023-04-09T05:00:15.963Z,13.40
2023-04-09T05:03:04.601Z,13.30
2023-04-09T05:05:53.050Z,13.30
2023-04-09T05:08:43.029Z,13.40
2023-04-09T05:11:31.489Z,13.40
2023-04-09T05:14:21.444Z,13.30
2023-04-09T05:17:09.943Z,13.30
2023-04-09T05:19:58.878Z,13.30
2023-04-09T05:22:47.282Z,13.30
2023-04-09T05:25:37.212Z,13.20
2023-04-09T05:28:25.660Z,13.30
2023-04-09T05:31:15.864Z,13.30
2023-04-09T05:34:04.425Z,13.30
2023-04-09T05:36:53.051Z,13.40
2023-04-09T05:39:41.453Z,13.40
2023-04-09T05:42:31.255Z,13.40
2023-04-09T05:45:19.662Z,13.40
2023-04-09T05:48:08.352Z,13.40
2023-04-09T05:50:57.964Z,13.40
2023-04-09T05:53:47.587Z,13.40
2023-04-09T05:56:36.514Z,13.40
2023-04-09T05:59:27.073Z,13.40
2023-04-09T06:02:15.813Z,13.40
2023-04-09T06:05:04.584Z,13.30
2023-04-09T06:07:53.015Z,13.30
2023-04-09T06:10:41.675Z,13.20
2023-04-09T06:13:30.107Z,13.20
2023-04-09T06:44:38.026Z,13.50
2023-04-09T06:47:27.151Z,13.50
2023-04-09T06:50:17.208Z,13.40
2023-04-09T06:53:07.492Z,13.40
2023-04-09T06:55:57.190Z,13.40
2023-04-09T06:58:45.804Z,13.30
2023-04-09T07:01:35.752Z,13.50
2023-04-09T07:04:24.332Z,13.50
2023-04-09T07:07:14.272Z,13.40
2023-04-09T07:12:51.728Z,13.70
2023-04-09T07:15:41.702Z,13.90
2023-04-09T07:18:34.300Z,14.00
2023-04-09T07:21:22.880Z,14.00
2023-04-09T08:03:48.037Z,15.30
2023-04-09T08:06:37.740Z,15.30
2023-04-09T08:09:26.291Z,15.40
2023-04-09T08:12:14.909Z,15.60
2023-04-09T08:15:05.091Z,15.60
2023-04-09T08:17:53.520Z,15.60
2023-04-09T08:20:45.285Z,15.70
2023-04-09T08:23:34.052Z,15.70
2023-04-09T08:26:22.579Z,15.70
2023-04-09T08:29:12.976Z,15.70
2023-04-09T08:32:03.125Z,15.60
2023-04-09T08:34:51.646Z,15.70
2023-04-09T08:37:40.261Z,15.80
2023-04-09T08:40:28.680Z,15.80
2023-04-09T08:43:18.996Z,15.70
2023-04-09T08:46:07.536Z,15.50
2023-04-09T08:48:57.373Z,15.70
2023-04-09T08:51:47.998Z,15.90
2023-04-09T08:57:25.336Z,16.20
2023-04-09T09:00:14.853Z,16.30
2023-04-09T09:03:04.819Z,16.30
2023-04-09T09:05:54.887Z,16.40
2023-04-09T09:08:43.412Z,16.50
2023-04-09T09:11:32.168Z,16.50
2023-04-09T09:14:21.584Z,16.50
2023-04-09T09:17:10.173Z,16.50
2023-04-09T09:19:58.899Z,16.70
2023-04-09T09:22:55.090Z,16.80
2023-04-09T09:25:44.462Z,16.80
2023-04-09T09:28:37.225Z,16.90
2023-04-09T09:31:26.374Z,17.00
2023-04-09T09:34:15.118Z,17.00
2023-04-09T09:37:03.629Z,17.00
2023-04-09T10:54:40.084Z,18.70
2023-04-09T10:57:28.605Z,19.00
2023-04-09T11:09:03.931Z,19.20
2023-04-09T11:11:54.873Z,19.40
2023-04-09T11:14:43.329Z,19.50
2023-04-09T11:17:37.166Z,19.60
2023-04-09T11:20:27.506Z,19.80
2023-04-09T11:23:18.751Z,18.80
2023-04-09T11:28:58.756Z,20.50
2023-04-09T11:31:47.225Z,20.60
2023-04-09T11:37:24.890Z,21.00
2023-04-09T11:40:18.750Z,21.30
2023-04-09T11:43:09.780Z,21.50
2023-04-09T11:45:58.687Z,21.80
2023-04-09T11:48:47.714Z,21.80
2023-04-09T11:51:36.564Z,21.90
2023-04-09T11:57:15.530Z,21.50
2023-04-09T12:00:08.259Z,21.50
2023-04-09T12:03:04.377Z,21.80
2023-04-09T12:05:54.157Z,22.20
2023-04-09T12:08:43.044Z,22.30
2023-04-09T12:11:33.092Z,22.40
2023-04-09T12:14:23.573Z,22.40
2023-04-09T12:17:12.033Z,22.40
2023-04-09T12:20:00.489Z,22.60
2023-04-09T12:22:49.072Z,22.60
2023-04-09T12:25:40.753Z,22.50
2023-04-09T12:28:30.027Z,22.30
2023-04-09T12:31:19.935Z,22.40
2023-04-09T12:34:08.491Z,22.70
2023-04-09T12:36:56.928Z,22.80
2023-04-09T12:39:45.638Z,22.30
2023-04-09T12:42:34.100Z,21.60
2023-04-09T12:45:23.045Z,20.60
2023-04-09T12:51:01.754Z,20.70
2023-04-09T12:53:50.558Z,20.90
2023-04-09T12:56:39.144Z,21.50
2023-04-09T12:59:27.632Z,21.90
2023-04-09T13:02:16.501Z,21.90
2023-04-09T13:05:07.432Z,21.80
2023-04-09T13:07:56.053Z,22.00
2023-04-09T13:10:44.573Z,22.20
2023-04-09T13:13:33.584Z,22.40
2023-04-09T13:19:11.705Z,23.00
2023-04-09T13:22:01.752Z,22.90
2023-04-09T13:24:50.351Z,22.60
2023-04-09T13:27:38.893Z,22.00
2023-04-09T13:30:27.429Z,21.70
2023-04-09T13:33:16.410Z,21.80
2023-04-09T13:36:06.005Z,22.20
2023-04-09T13:38:56.334Z,22.70
2023-04-09T13:41:45.410Z,22.90
2023-04-09T13:44:34.034Z,23.10
2023-04-09T13:47:23.950Z,23.20
2023-04-09T13:50:13.817Z,23.30
2023-04-09T13:55:55.398Z,23.00
2023-04-09T13:58:44.112Z,22.80
2023-04-09T14:07:10.491Z,22.40
2023-04-09T14:09:59.017Z,22.50
2023-04-09T14:12:48.865Z,22.50
2023-04-09T14:15:37.814Z,22.70
2023-04-09T14:18:26.318Z,22.90
2023-04-09T14:21:14.831Z,23.00
2023-04-09T14:24:03.515Z,23.20
2023-04-09T14:26:53.656Z,23.40
2023-04-09T14:29:43.658Z,23.50
2023-04-09T14:32:32.133Z,23.40
2023-04-09T14:35:21.118Z,23.30
2023-04-09T14:38:09.961Z,23.30
2023-04-09T14:40:58.456Z,23.40
2023-04-09T14:43:46.956Z,23.50
2023-04-09T14:46:37.850Z,23.50
2023-04-09T14:49:26.412Z,23.30
2023-04-09T14:52:15.011Z,23.40
2023-04-09T14:55:04.142Z,23.20
2023-04-09T14:57:52.575Z,23.20
2023-04-09T15:00:41.316Z,23.10
2023-04-09T15:03:31.388Z,22.90
2023-04-09T15:06:20.294Z,22.80
2023-04-09T15:09:09.080Z,22.60
2023-04-09T15:11:57.973Z,22.50
2023-04-09T15:14:46.465Z,22.40
2023-04-09T15:17:35.338Z,22.30
2023-04-09T15:20:25.464Z,21.80
2023-04-09T15:23:14.146Z,21.60
2023-04-09T15:26:02.677Z,21.40
2023-04-09T15:28:53.554Z,21.50
2023-04-09T15:31:42.406Z,21.50
2023-04-09T15:34:31.076Z,21.40
2023-04-09T15:37:21.254Z,21.30
2023-04-09T15:40:10.747Z,21.40
2023-04-09T15:42:59.288Z,21.40
2023-04-09T15:45:48.568Z,21.30
2023-04-09T15:48:37.216Z,21.40
2023-04-09T15:51:26.803Z,21.40
2023-04-09T15:57:05.982Z,21.00
2023-04-09T15:59:54.533Z,21.00
2023-04-09T16:02:43.030Z,20.80
2023-04-09T16:05:31.636Z,20.70
2023-04-09T16:08:20.339Z,20.70
2023-04-09T16:11:10.684Z,20.50
2023-04-09T16:13:59.406Z,20.50
2023-04-09T16:19:38.801Z,20.30
2023-04-09T16:22:27.442Z,20.20
2023-04-09T16:25:16.184Z,19.90
2023-04-09T16:28:06.501Z,19.90
2023-04-09T16:30:55.379Z,19.80
2023-04-09T16:33:43.887Z,19.90
2023-04-09T16:39:25.575Z,19.60
2023-04-09T16:42:14.201Z,19.50
2023-04-09T16:47:54.571Z,19.30
2023-04-09T16:50:43.696Z,19.30
2023-04-09T16:53:32.459Z,19.20
2023-04-09T17:10:28.961Z,18.70
2023-04-09T17:13:17.474Z,18.60
2023-04-09T17:16:06.814Z,18.40
2023-04-09T17:18:56.774Z,18.30
2023-04-09T17:21:45.727Z,18.30
2023-04-09T17:27:25.422Z,18.10
2023-04-09T17:30:14.458Z,17.90
2023-04-09T17:33:03.143Z,17.90
2023-04-09T17:47:10.060Z,18.20
2023-04-09T17:49:58.619Z,17.70
2023-04-09T17:52:48.628Z,17.60
2023-04-09T18:54:54.075Z,16.90
2023-04-09T19:03:23.958Z,16.60
2023-04-09T19:06:14.707Z,16.50
2023-04-09T19:11:53.340Z,16.50
2023-04-09T19:14:41.872Z,16.40
2023-04-09T19:17:32.135Z,16.80
2023-04-09T19:20:21.001Z,16.50
